Time;durP1;ratioP1;P1;durP2;ratioP2;P2;SDS_P1;SDS_P2;PMS_P1;PMS_P2;Temp;Humidity;BMP_temperature;BMP_pressure;BME280_temperature;BME280_humidity;BME280_pressure;Samples;Min_cycle;Max_cycle;Signal;HPM_P1;HPM_P2
2021/04/30 00:00:29;;;;;;;116.70;58.10;;;;;;;9.88;73.80;93957.77;1822119;78;21490;-55
2021/04/30 00:02:58;;;;;;;115.82;54.27;;;;;;;9.89;73.69;93957.92;1821996;78;21189;-55
2021/04/30 00:05:29;;;;;;;97.50;52.85;;;;;;;9.92;73.34;93951.50;1821992;78;21071;-54
2021/04/30 00:07:57;;;;;;;94.22;52.88;;;;;;;9.87;73.44;93949.38;1822148;78;21551;-56
2021/04/30 00:10:25;;;;;;;103.12;52.55;;;;;;;9.79;73.48;93951.69;1809438;79;21142;-55
2021/04/30 00:12:55;;;;;;;97.37;51.18;;;;;;;9.77;73.77;93952.02;1822203;78;21547;-55
2021/04/30 00:15:22;;;;;;;86.53;44.53;;;;;;;9.81;73.64;93948.48;1809535;79;21612;-55
2021/04/30 00:17:50;;;;;;;85.57;42.98;;;;;;;9.83;73.43;93944.67;1821971;78;21135;-56
2021/04/30 00:20:18;;;;;;;72.42;38.20;;;;;;;9.82;73.54;93943.89;1822181;78;21059;-56
2021/04/30 00:22:46;;;;;;;85.75;43.28;;;;;;;9.84;73.50;93940.70;1809446;79;21064;-55
2021/04/30 00:25:14;;;;;;;102.82;47.73;;;;;;;9.86;73.26;93941.00;1822194;78;21580;-56
2021/04/30 00:27:42;;;;;;;75.03;39.88;;;;;;;9.84;73.31;93937.95;1822200;78;21334;-56
2021/04/30 00:30:14;;;;;;;64.77;35.60;;;;;;;9.82;73.19;93943.15;1809482;79;21080;-56
2021/04/30 00:32:42;;;;;;;59.05;32.25;;;;;;;9.77;73.09;93936.28;1822242;78;21198;-56
2021/04/30 00:35:12;;;;;;;74.45;39.73;;;;;;;9.74;73.34;93937.80;1822199;78;21078;-55
2021/04/30 00:37:40;;;;;;;114.70;56.28;;;;;;;9.73;73.44;93923.92;1808811;79;21131;-55
2021/04/30 00:40:11;;;;;;;135.22;65.52;;;;;;;9.61;73.46;93921.51;1822232;78;21192;-55
2021/04/30 00:42:38;;;;;;;121.97;58.20;;;;;;;9.50;73.82;93929.48;1806392;79;21565;-55
2021/04/30 00:45:09;;;;;;;115.03;59.83;;;;;;;9.55;74.31;93940.43;1822166;78;21104;-56
2021/04/30 00:47:37;;;;;;;106.05;57.03;;;;;;;9.65;74.19;93948.82;1792577;78;21071;-56
2021/04/30 00:50:09;;;;;;;92.97;47.70;;;;;;;9.72;73.86;93938.88;1806569;79;21577;-56
2021/04/30 00:52:37;;;;;;;87.35;44.95;;;;;;;9.76;73.44;93945.00;1822461;78;21191;-56
2021/04/30 00:55:12;;;;;;;83.70;43.42;;;;;;;9.77;73.51;93944.52;1822098;78;21114;-55
2021/04/30 00:57:49;;;;;;;73.65;41.83;;;;;;;9.80;73.35;93953.84;1806552;79;21489;-56
2021/04/30 01:00:19;;;;;;;91.08;47.88;;;;;;;9.84;73.53;93950.31;1822242;78;21491;-55
2021/04/30 01:02:46;;;;;;;92.90;49.42;;;;;;;9.79;73.05;93940.70;1822203;78;21119;-55
2021/04/30 01:05:16;;;;;;;101.55;52.90;;;;;;;9.69;73.06;93948.82;1822176;78;21194;-55
2021/04/30 01:07:44;;;;;;;98.70;53.15;;;;;;;9.56;73.51;93947.45;1806349;78;21151;-56
2021/04/30 01:10:13;;;;;;;101.78;53.78;;;;;;;9.58;73.79;93951.89;1822175;78;21179;-55
2021/04/30 01:12:42;;;;;;;95.40;52.17;;;;;;;9.59;73.83;93947.30;1822177;78;21508;-56
2021/04/30 01:15:12;;;;;;;87.15;48.42;;;;;;;9.62;73.91;93941.51;1806473;79;21457;-55
2021/04/30 01:17:40;;;;;;;89.37;45.40;;;;;;;9.63;74.04;93941.66;1822135;78;21202;-56
2021/04/30 01:20:09;;;;;;;179.45;65.22;;;;;;;9.72;73.95;93936.13;1806317;79;21076;-55
2021/04/30 01:22:43;;;;;;;143.57;54.27;;;;;;;9.74;73.47;93937.80;1822181;78;21059;-56
2021/04/30 01:25:16;;;;;;;110.48;54.33;;;;;;;9.71;73.83;93956.58;1806566;79;21076;-56
2021/04/30 01:27:44;;;;;;;95.72;48.13;;;;;;;9.61;73.59;93951.72;1822225;78;21091;-56
2021/04/30 01:30:19;;;;;;;101.90;55.45;;;;;;;9.51;73.75;93957.67;1822166;78;21198;-56
2021/04/30 01:32:47;;;;;;;116.85;60.15;;;;;;;9.35;73.90;93958.77;1822094;78;21226;-55
2021/04/30 01:35:24;;;;;;;115.22;58.92;;;;;;;9.19;74.40;93962.41;1822140;78;21163;-55
2021/04/30 01:37:53;;;;;;;117.60;61.02;;;;;;;9.21;74.59;93970.97;1806676;79;21258;-55
2021/04/30 01:40:23;;;;;;;116.53;61.33;;;;;;;9.22;74.51;93969.75;1822220;78;21472;-56
2021/04/30 01:43:07;;;;;;;122.13;62.15;;;;;;;9.21;74.80;93966.85;1809585;79;21864;-55
2021/04/30 01:45:42;;;;;;;117.22;60.10;;;;;;;9.31;75.02;93958.16;1794082;78;21178;-55
2021/04/30 01:48:14;;;;;;;110.15;57.75;;;;;;;9.47;74.91;93980.41;1822254;78;21075;-55
2021/04/30 01:50:42;;;;;;;109.57;58.27;;;;;;;9.63;74.47;93972.61;1809850;79;21187;-55
2021/04/30 01:53:16;;;;;;;90.28;47.83;;;;;;;9.69;74.21;93974.14;1822175;78;21071;-55
2021/04/30 01:55:44;;;;;;;105.90;52.73;;;;;;;9.76;73.98;93967.72;1809620;79;22101;-55
2021/04/30 01:58:12;;;;;;;97.12;53.00;;;;;;;9.75;73.81;93973.06;1822031;78;21071;-56
2021/04/30 02:00:40;;;;;;;107.83;57.88;;;;;;;9.72;74.07;93978.70;1809623;79;21520;-56
2021/04/30 02:03:08;;;;;;;117.17;59.40;;;;;;;9.62;73.97;93973.09;1822121;78;21099;-57
2021/04/30 02:05:38;;;;;;;110.85;56.85;;;;;;;9.53;74.26;93968.95;1809538;79;21071;-56
2021/04/30 02:08:14;;;;;;;103.95;54.98;;;;;;;9.53;74.74;93957.98;1822110;78;21291;-56
2021/04/30 02:10:43;;;;;;;101.92;53.60;;;;;;;9.60;74.77;93952.19;1809522;79;21060;-55
2021/04/30 02:13:12;;;;;;;94.20;49.18;;;;;;;9.65;74.99;93951.56;1822235;78;21512;-55
2021/04/30 02:15:42;;;;;;;94.87;52.23;;;;;;;9.77;74.93;93935.53;1809513;79;21063;-55
2021/04/30 02:18:10;;;;;;;94.35;53.92;;;;;;;9.92;74.90;93943.26;1822095;78;21052;-56
2021/04/30 02:20:38;;;;;;;89.50;50.30;;;;;;;10.04;74.58;93945.88;1809482;79;21239;-56
2021/04/30 02:23:06;;;;;;;89.65;49.33;;;;;;;10.16;74.24;93951.02;1822066;78;21087;-56
2021/04/30 02:25:34;;;;;;;92.75;48.13;;;;;;;10.15;73.91;93959.87;1809496;79;21139;-55
2021/04/30 02:28:03;;;;;;;82.82;42.55;;;;;;;10.14;73.75;93967.22;1822157;78;21150;-55
2021/04/30 02:30:34;;;;;;;64.95;36.20;;;;;;;10.11;73.78;93963.39;1809526;79;21059;-55
2021/04/30 02:33:04;;;;;;;61.75;34.98;;;;;;;10.11;73.82;93969.49;1822065;78;21252;-56
2021/04/30 02:35:38;;;;;;;74.67;42.08;;;;;;;10.06;74.08;93985.23;1809566;79;21961;-56
2021/04/30 02:38:08;;;;;;;83.90;47.03;;;;;;;10.02;74.22;94005.25;1822702;78;21143;-56
2021/04/30 02:40:38;;;;;;;86.97;50.83;;;;;;;9.94;74.36;93992.41;1812348;79;21139;-56
2021/04/30 02:43:08;;;;;;;96.82;53.50;;;;;;;9.94;74.43;93991.63;1825280;78;21102;-57
2021/04/30 02:45:36;;;;;;;94.60;52.23;;;;;;;9.85;74.37;93970.47;1825365;78;22099;-55
2021/04/30 02:48:13;;;;;;;93.00;51.70;;;;;;;9.80;74.63;93967.56;1812294;79;21099;-56
2021/04/30 02:50:35;;;;;;;89.40;50.88;;;;;;;9.88;75.30;93968.77;1824262;78;21147;-56
2021/04/30 02:53:03;;;;;;;87.88;49.60;;;;;;;10.00;75.07;93969.95;1812337;79;21148;-56
2021/04/30 02:55:32;;;;;;;79.80;44.65;;;;;;;10.06;75.04;93971.50;1825291;78;21154;-57
2021/04/30 02:58:01;;;;;;;85.70;49.18;;;;;;;10.06;74.78;93967.38;1812233;79;21258;-54
2021/04/30 03:00:30;;;;;;;80.90;46.02;;;;;;;9.97;74.87;93978.38;1825308;78;21139;-56
2021/04/30 03:02:58;;;;;;;85.22;42.80;;;;;;;9.87;75.02;93967.24;1812338;78;21493;-55
2021/04/30 03:05:27;;;;;;;70.78;42.08;;;;;;;9.83;75.16;93954.28;1825283;78;21474;-57
2021/04/30 03:07:55;;;;;;;82.20;46.83;;;;;;;9.78;75.44;93954.91;1824718;78;21108;-55
2021/04/30 03:10:23;;;;;;;92.65;51.55;;;;;;;9.80;75.41;93942.22;1812302;79;21175;-56
2021/04/30 03:12:51;;;;;;;88.67;53.70;;;;;;;9.78;75.53;93935.05;1825171;78;21158;-56
2021/04/30 03:15:19;;;;;;;100.95;57.93;;;;;;;9.81;75.55;93938.88;1812329;78;21087;-56
2021/04/30 03:17:48;;;;;;;76.85;45.17;;;;;;;9.86;75.67;93929.41;1825230;78;21055;-55
2021/04/30 03:20:17;;;;;;;87.15;47.90;;;;;;;9.94;75.38;93935.31;1812327;79;21123;-58
2021/04/30 03:22:45;;;;;;;92.55;50.28;;;;;;;9.89;75.07;93927.11;1825252;78;21269;-57
2021/04/30 03:25:13;;;;;;;87.17;51.85;;;;;;;9.78;75.33;93924.70;1825105;78;21206;-55
2021/04/30 03:27:41;;;;;;;105.35;53.78;;;;;;;9.71;75.44;93933.23;1825332;78;21068;-56
2021/04/30 03:30:12;;;;;;;87.40;52.03;;;;;;;9.60;75.78;93930.97;1812373;79;21080;-56
2021/04/30 03:32:40;;;;;;;102.53;54.75;;;;;;;9.62;76.14;93936.77;1825310;78;21056;-56
2021/04/30 03:35:10;;;;;;;82.08;48.38;;;;;;;9.76;76.47;93939.51;1812282;78;21383;-56
2021/04/30 03:37:39;;;;;;;89.47;46.50;;;;;;;9.93;76.05;93944.78;1825128;78;21103;-58
2021/04/30 03:40:09;;;;;;;87.78;47.08;;;;;;;10.03;75.68;93942.20;1807588;79;21084;-56
2021/04/30 03:42:36;;;;;;;81.32;46.42;;;;;;;10.06;75.46;93934.40;1822069;78;21304;-55
2021/04/30 03:45:07;;;;;;;87.17;45.43;;;;;;;10.11;75.52;93928.27;1806351;79;21112;-57
2021/04/30 03:47:34;;;;;;;81.45;45.65;;;;;;;10.16;75.28;93927.03;1822158;78;22111;-56
2021/04/30 03:50:05;;;;;;;77.30;42.08;;;;;;;10.17;74.94;93929.19;1806223;79;21852;-55
2021/04/30 03:52:32;;;;;;;88.78;50.43;;;;;;;10.12;75.08;93931.16;1822175;78;21573;-56
2021/04/30 03:55:00;;;;;;;82.65;48.50;;;;;;;10.05;74.99;93928.76;1806350;79;21489;-56
2021/04/30 03:57:28;;;;;;;89.90;46.48;;;;;;;9.95;75.39;93923.12;1822072;78;21139;-56
2021/04/30 03:59:56;;;;;;;85.42;45.92;;;;;;;9.94;75.71;93936.69;1806502;79;21197;-56
2021/04/30 04:02:24;;;;;;;90.07;48.48;;;;;;;9.94;75.92;93925.70;1822165;78;21170;-56
2021/04/30 04:04:52;;;;;;;81.95;48.20;;;;;;;10.01;76.11;93925.39;1822203;78;21467;-56
2021/04/30 04:07:20;;;;;;;90.80;54.27;;;;;;;10.14;75.98;93928.74;1822238;78;21043;-56
2021/04/30 04:09:48;;;;;;;85.07;46.15;;;;;;;10.20;75.55;93930.38;1806502;79;21073;-55
2021/04/30 04:12:16;;;;;;;66.25;41.50;;;;;;;10.19;75.30;93928.10;1822216;78;21567;-55
2021/04/30 04:14:44;;;;;;;73.78;43.68;;;;;;;10.12;75.27;93932.54;1806506;79;21140;-56
2021/04/30 04:17:16;;;;;;;74.87;44.60;;;;;;;10.01;75.54;93924.02;1822210;78;21076;-57
2021/04/30 04:19:48;;;;;;;70.40;44.65;;;;;;;10.02;75.91;93922.19;1820060;78;21124;-57
2021/04/30 04:22:16;;;;;;;70.10;43.75;;;;;;;10.07;75.96;93933.17;1822343;78;21143;-55
2021/04/30 04:24:44;;;;;;;72.60;44.25;;;;;;;10.11;75.94;93931.02;1822226;78;21186;-55
2021/04/30 04:27:12;;;;;;;68.47;42.73;;;;;;;10.12;75.83;93934.69;1806428;79;21189;-56
2021/04/30 04:29:41;;;;;;;58.65;36.80;;;;;;;10.14;75.86;93935.61;1822176;78;21040;-56
2021/04/30 04:32:09;;;;;;;64.90;38.28;;;;;;;10.17;76.15;93939.55;1806496;79;21075;-56
2021/04/30 04:34:39;;;;;;;68.95;41.55;;;;;;;10.24;76.07;93939.23;1822222;78;21075;-56
2021/04/30 04:37:07;;;;;;;63.42;37.35;;;;;;;10.28;76.04;93933.55;1806493;79;21255;-56
2021/04/30 04:39:35;;;;;;;47.60;31.60;;;;;;;10.29;76.15;93939.97;1821954;78;21135;-56
2021/04/30 04:42:05;;;;;;;50.17;29.20;;;;;;;10.32;76.20;93940.41;1806423;79;21147;-56
2021/04/30 04:44:35;;;;;;;43.92;28.85;;;;;;;10.35;76.31;93941.48;1822426;78;21131;-56
2021/04/30 04:47:03;;;;;;;46.18;29.10;;;;;;;10.38;76.23;93944.67;1822291;78;21186;-57
2021/04/30 04:49:31;;;;;;;43.78;27.70;;;;;;;10.41;76.28;93942.36;1822217;78;21198;-55
2021/04/30 04:51:59;;;;;;;42.43;28.67;;;;;;;10.42;76.31;93938.38;1806416;79;21104;-55
2021/04/30 04:54:28;;;;;;;36.70;24.23;;;;;;;10.44;76.62;93940.05;1822190;78;21051;-56
2021/04/30 04:56:56;;;;;;;30.48;21.52;;;;;;;10.54;76.67;93942.92;1806383;79;21096;-56
2021/04/30 04:59:24;;;;;;;31.00;20.30;;;;;;;10.62;76.54;93950.97;1822120;78;21103;-56
2021/04/30 05:01:52;;;;;;;47.50;28.57;;;;;;;10.69;76.62;93955.52;1806441;79;21195;-56
2021/04/30 05:04:21;;;;;;;49.40;33.35;;;;;;;10.82;76.62;93956.06;1822131;78;21059;-57
2021/04/30 05:06:48;;;;;;;44.95;25.62;;;;;;;10.98;76.44;93959.16;1806406;79;21053;-60
2021/04/30 05:09:16;;;;;;;42.88;29.48;;;;;;;11.10;76.26;93963.67;1822072;78;21162;-57
2021/04/30 05:11:44;;;;;;;48.28;31.75;;;;;;;11.18;75.48;93966.20;1806500;79;21132;-56
2021/04/30 05:14:12;;;;;;;49.67;31.05;;;;;;;11.14;74.90;93971.14;1822127;78;23520;-56
2021/04/30 05:16:42;;;;;;;38.70;27.60;;;;;;;11.06;75.02;93960.95;1806339;79;21080;-56
2021/04/30 05:19:10;;;;;;;48.38;29.82;;;;;;;11.10;74.80;93974.69;1822103;78;21036;-56
2021/04/30 05:21:41;;;;;;;53.45;31.25;;;;;;;11.08;74.78;93968.12;1806344;79;21064;-57
2021/04/30 05:24:11;;;;;;;51.37;30.35;;;;;;;11.08;75.07;93968.89;1822229;78;21548;-57
2021/04/30 05:26:39;;;;;;;41.28;29.02;;;;;;;11.07;74.84;93964.63;1806450;79;21195;-56
2021/04/30 05:29:07;;;;;;;42.65;29.63;;;;;;;10.99;75.16;93950.30;1792099;78;21111;-55
2021/04/30 05:31:35;;;;;;;37.03;26.55;;;;;;;11.03;75.52;93954.41;1806371;79;21572;-59
2021/04/30 05:34:04;;;;;;;43.92;28.55;;;;;;;11.08;75.52;93959.27;1822097;78;21142;-57
2021/04/30 05:36:31;;;;;;;42.98;27.70;;;;;;;11.12;75.89;93959.06;1806485;79;21508;-58
2021/04/30 05:39:01;;;;;;;42.17;27.98;;;;;;;11.24;76.11;93957.47;1800961;78;21145;-60
2021/04/30 05:41:32;;;;;;;73.02;48.90;;;;;;;11.44;75.94;93968.64;1814710;77;21118;-60
2021/04/30 05:44:00;;;;;;;70.32;50.67;;;;;;;11.53;75.97;93972.68;1760338;80;21115;-60
2021/04/30 05:46:28;;;;;;;58.28;41.18;;;;;;;11.65;75.71;93964.03;1807258;77;21072;-61
2021/04/30 05:48:57;;;;;;;57.15;37.83;;;;;;;11.76;75.51;93973.30;1804654;78;21175;-59
2021/04/30 05:51:27;;;;;;;44.70;32.78;;;;;;;11.78;75.18;93959.80;1802223;78;21311;-60
2021/04/30 05:53:54;;;;;;;74.50;48.13;;;;;;;11.84;75.06;93952.99;1807668;78;21661;-59
2021/04/30 05:56:24;;;;;;;74.80;52.38;;;;;;;11.84;75.12;93952.99;1830206;76;21181;-58
2021/04/30 05:58:52;;;;;;;65.05;44.35;;;;;;;11.89;75.06;93956.48;1824798;77;21116;-59
2021/04/30 06:01:21;;;;;;;57.30;37.80;;;;;;;11.91;74.83;93965.78;1819411;76;21634;-56
2021/04/30 06:03:49;;;;;;;57.33;36.77;;;;;;;11.96;74.77;93971.27;1796067;78;21188;-59
2021/04/30 06:06:18;;;;;;;51.15;35.03;;;;;;;12.05;74.52;93976.70;1830499;77;21724;-60
2021/04/30 06:08:46;;;;;;;56.80;39.85;;;;;;;12.08;74.39;93970.97;1796741;78;21211;-61
2021/04/30 06:11:14;;;;;;;58.38;41.23;;;;;;;12.08;74.72;93969.59;1784630;78;21140;-59
2021/04/30 06:13:42;;;;;;;63.78;43.80;;;;;;;12.12;74.93;93978.44;1801284;78;21597;-54
2021/04/30 06:16:10;;;;;;;52.95;39.60;;;;;;;12.19;74.93;93964.28;1801628;77;21374;-55
2021/04/30 06:18:38;;;;;;;60.75;40.10;;;;;;;12.34;74.62;93982.20;1792759;78;21714;-59
2021/04/30 06:21:06;;;;;;;60.28;44.73;;;;;;;12.33;74.39;93975.94;1790459;78;21493;-53
2021/04/30 06:23:34;;;;;;;66.47;47.10;;;;;;;12.29;74.45;93975.98;1797629;78;21194;-55
2021/04/30 06:26:03;;;;;;;71.62;46.58;;;;;;;12.28;74.48;93979.34;1771481;78;21060;-61
2021/04/30 06:28:31;;;;;;;77.12;53.28;;;;;;;12.28;74.55;93968.94;1820957;77;22584;-57
2021/04/30 06:30:59;;;;;;;62.40;44.90;;;;;;;12.28;74.95;93966.92;1815235;77;21119;-56
2021/04/30 06:33:27;;;;;;;39.42;27.48;;;;;;;12.43;74.72;93964.92;1797658;78;21166;-61
2021/04/30 06:35:57;;;;;;;30.80;22.05;;;;;;;12.47;74.68;93970.25;1793391;78;21708;-56
2021/04/30 06:38:26;;;;;;;25.90;17.98;;;;;;;12.65;75.02;93974.92;1781342;78;21174;-59
2021/04/30 06:40:54;;;;;;;19.05;13.62;;;;;;;12.85;74.74;93966.69;1803989;78;21357;-57
2021/04/30 06:43:23;;;;;;;12.28;8.95;;;;;;;13.16;74.33;93986.24;1824890;77;21159;-59
2021/04/30 06:45:52;;;;;;;5.08;3.42;;;;;;;13.42;73.23;93992.00;1817776;77;21186;-57
2021/04/30 06:48:19;;;;;;;7.12;4.62;;;;;;;13.69;69.64;93978.38;1811351;77;21145;-61
2021/04/30 06:50:47;;;;;;;4.28;3.67;;;;;;;14.03;69.39;93993.45;1822203;77;21135;-56
2021/04/30 06:53:15;;;;;;;6.83;5.08;;;;;;;14.29;68.27;94001.19;1822489;77;21188;-59
2021/04/30 06:55:43;;;;;;;6.00;4.62;;;;;;;14.48;66.79;93997.58;1788885;79;21132;-59
2021/04/30 06:58:11;;;;;;;4.78;3.75;;;;;;;14.66;66.32;94022.79;1806529;79;21154;-57
2021/04/30 07:00:39;;;;;;;7.10;5.35;;;;;;;14.79;65.04;94025.28;1795782;78;21100;-55
2021/04/30 07:03:07;;;;;;;6.22;4.78;;;;;;;14.91;64.94;94035.21;1789615;78;21200;-60
2021/04/30 07:05:37;;;;;;;11.28;6.20;;;;;;;14.97;64.46;94037.39;1785457;78;21414;-57
2021/04/30 07:08:06;;;;;;;6.25;4.47;;;;;;;15.02;64.33;94033.89;1802961;78;21729;-59
2021/04/30 07:10:34;;;;;;;9.10;5.12;;;;;;;15.06;63.33;94046.92;1789648;80;21127;-61
2021/04/30 07:13:11;;;;;;;4.97;4.22;;;;;;;15.11;62.48;94052.34;1797943;78;21626;-59
2021/04/30 07:15:39;;;;;;;12.03;6.40;;;;;;;15.14;62.05;94045.84;1763706;78;21171;-57
2021/04/30 07:18:07;;;;;;;8.33;5.03;;;;;;;15.16;62.76;94039.92;1793826;78;21552;-59
2021/04/30 07:20:35;;;;;;;6.33;4.47;;;;;;;15.18;63.12;94029.74;1789857;78;21151;-59
2021/04/30 07:23:03;;;;;;;2.83;2.50;;;;;;;15.20;63.09;94022.44;1790085;78;21603;-63
2021/04/30 07:25:31;;;;;;;15.38;9.05;;;;;;;15.23;62.90;93997.14;1793631;78;21191;-63
2021/04/30 07:28:00;;;;;;;8.30;4.90;;;;;;;15.23;63.25;94013.16;1793488;78;21170;-61
2021/04/30 07:30:28;;;;;;;10.70;6.60;;;;;;;15.23;62.85;93999.30;1814551;78;21375;-62
2021/04/30 07:32:57;;;;;;;4.95;3.12;;;;;;;15.34;62.87;93997.25;1791517;78;21118;-59
2021/04/30 07:35:26;;;;;;;3.40;2.75;;;;;;;15.46;61.90;93998.20;1788374;79;21267;-57
2021/04/30 07:37:55;;;;;;;23.05;13.68;;;;;;;15.58;59.41;93993.46;1790011;78;21199;-59
2021/04/30 07:40:23;;;;;;;12.18;7.62;;;;;;;15.63;59.95;93982.41;1788011;78;22221;-58
2021/04/30 07:42:52;;;;;;;12.45;8.03;;;;;;;15.73;60.70;94003.10;1797877;78;21206;-62
2021/04/30 07:45:20;;;;;;;11.40;7.10;;;;;;;15.84;60.14;94006.55;1800133;78;21182;-59
2021/04/30 07:47:48;;;;;;;12.65;7.33;;;;;;;15.91;60.21;94006.83;1752183;79;21589;-59
2021/04/30 07:50:16;;;;;;;5.83;4.47;;;;;;;15.96;59.63;94022.77;1784122;78;21161;-61
2021/04/30 07:52:44;;;;;;;4.65;3.20;;;;;;;16.02;58.86;94031.08;1781480;78;21685;-60
2021/04/30 07:55:12;;;;;;;4.67;1.90;;;;;;;16.01;58.19;94006.75;1790501;78;21379;-62
2021/04/30 07:57:41;;;;;;;3.65;1.98;;;;;;;16.01;57.49;94010.91;1791847;78;21203;-60
2021/04/30 08:00:11;;;;;;;7.95;2.87;;;;;;;16.02;57.36;94005.49;1793346;78;21201;-61
2021/04/30 08:02:42;;;;;;;19.60;5.60;;;;;;;16.08;57.40;94007.65;1800019;78;22143;-59
2021/04/30 08:05:11;;;;;;;7.87;4.12;;;;;;;16.19;57.82;94016.63;1781470;80;21076;-57
2021/04/30 08:07:41;;;;;;;17.27;5.12;;;;;;;16.28;57.52;94020.70;1789662;78;22680;-59
2021/04/30 08:10:11;;;;;;;6.78;3.33;;;;;;;16.37;57.42;94024.66;1756462;79;21203;-58
2021/04/30 08:12:39;;;;;;;17.62;4.90;;;;;;;16.45;57.23;94020.77;1791202;78;21322;-61
2021/04/30 08:15:11;;;;;;;10.45;5.45;;;;;;;16.57;57.12;94025.09;1790940;78;21145;-60
2021/04/30 08:17:39;;;;;;;12.75;4.72;;;;;;;16.61;57.01;94020.03;1785357;78;21117;-59
2021/04/30 08:20:09;;;;;;;17.40;5.55;;;;;;;16.65;56.33;94021.93;1790180;78;22327;-60
2021/04/30 08:22:37;;;;;;;15.95;5.08;;;;;;;16.65;56.67;94019.92;1785575;78;21150;-61
2021/04/30 08:25:06;;;;;;;33.63;6.40;;;;;;;16.67;56.17;94018.02;1799371;78;21169;-56
2021/04/30 08:27:35;;;;;;;11.30;3.98;;;;;;;16.73;56.51;94015.38;1783464;78;21174;-59
2021/04/30 08:30:04;;;;;;;14.35;4.45;;;;;;;16.79;56.01;94016.77;1787782;78;21112;-57
2021/04/30 08:32:32;;;;;;;30.12;4.25;;;;;;;16.86;55.88;94013.48;1787494;78;21192;-56
2021/04/30 08:35:01;;;;;;;5.97;3.65;;;;;;;16.91;55.63;94007.19;1802266;78;21162;-57
2021/04/30 08:37:30;;;;;;;11.45;3.02;;;;;;;16.95;55.31;94022.97;1809192;78;21163;-59
2021/04/30 08:40:00;;;;;;;7.35;2.77;;;;;;;16.95;54.82;94021.58;1793709;78;21202;-61
2021/04/30 08:42:28;;;;;;;17.02;3.95;;;;;;;16.97;55.31;94013.49;1791393;78;21174;-56
2021/04/30 08:44:57;;;;;;;5.53;2.87;;;;;;;16.96;55.17;94016.91;1821272;77;21333;-59
2021/04/30 08:47:25;;;;;;;13.45;3.85;;;;;;;16.90;55.42;94020.95;1801583;78;21192;-60
2021/04/30 08:49:55;;;;;;;21.07;3.90;;;;;;;16.82;55.70;94026.88;1814803;78;21250;-58
2021/04/30 08:52:23;;;;;;;9.65;4.55;;;;;;;16.78;55.55;94034.09;1815031;78;22050;-56
2021/04/30 08:54:54;;;;;;;18.35;4.55;;;;;;;16.74;55.61;94031.42;1796951;78;21740;-62
2021/04/30 08:57:26;;;;;;;6.37;3.70;;;;;;;16.72;55.95;94032.56;1809737;78;21193;-61
2021/04/30 08:59:59;;;;;;;5.57;2.43;;;;;;;16.69;56.11;94038.48;1803030;78;21223;-61
2021/04/30 09:02:27;;;;;;;;;;;;;;;16.69;56.09;94032.92;1797826;78;21193;-59
2021/04/30 09:04:55;;;;;;;9.45;4.60;;;;;;;16.71;55.96;94029.66;1810303;78;20267;-57
2021/04/30 09:07:25;;;;;;;19.20;4.20;;;;;;;16.74;55.71;94036.33;1786674;78;21206;-59
2021/04/30 09:10:06;;;;;;;7.53;3.90;;;;;;;16.82;56.21;94033.81;1810236;78;21368;-60
2021/04/30 09:12:34;;;;;;;9.68;2.85;;;;;;;16.83;55.95;94039.50;1804452;78;21161;-60
2021/04/30 09:15:05;;;;;;;12.00;3.47;;;;;;;16.83;55.90;94033.33;1811873;78;21182;-59
2021/04/30 09:17:34;;;;;;;9.58;4.17;;;;;;;16.86;55.81;94041.27;1793783;78;21856;-59
2021/04/30 09:20:03;;;;;;;18.00;3.10;;;;;;;16.95;55.79;94036.86;1794364;78;21194;-60
2021/04/30 09:22:37;;;;;;;4.62;2.92;;;;;;;17.07;55.64;94037.73;1795014;78;21202;-62
2021/04/30 09:25:19;;;;;;;3.75;2.55;;;;;;;17.18;55.65;94032.81;1810740;78;21519;-64
2021/04/30 09:27:47;;;;;;;4.62;3.05;;;;;;;17.30;55.65;94037.10;1800956;78;21932;-61
2021/04/30 09:30:31;;;;;;;5.70;3.65;;;;;;;17.45;55.38;94046.71;1796415;78;22363;-64
2021/04/30 09:33:12;;;;;;;4.95;3.10;;;;;;;17.58;55.29;94048.95;1807365;78;21552;-61
2021/04/30 09:35:57;;;;;;;4.35;2.20;;;;;;;17.69;55.25;94042.77;1802113;78;22093;-64
2021/04/30 09:38:35;;;;;;;27.40;24.00;;;;;;;17.80;55.05;94046.89;1793948;79;21751;-58
2021/04/30 09:41:11;;;;;;;8.53;5.37;;;;;;;17.90;54.83;94048.14;1802724;78;21181;-57
2021/04/30 09:43:50;;;;;;;5.20;3.55;;;;;;;18.00;54.20;94040.26;1799784;78;21101;-56
2021/04/30 09:46:28;;;;;;;10.25;3.00;;;;;;;18.00;54.26;94054.92;1795833;78;21231;-59
2021/04/30 09:48:59;;;;;;;4.97;2.98;;;;;;;17.97;54.62;94046.86;1795505;78;21192;-56
2021/04/30 09:51:45;;;;;;;5.75;2.20;;;;;;;17.97;54.79;94043.42;1795093;79;22447;-63
2021/04/30 09:54:25;;;;;;;6.67;2.80;;;;;;;17.97;54.63;94049.64;1797031;78;21187;-57
2021/04/30 09:57:11;;;;;;;33.38;21.30;;;;;;;17.90;54.72;94051.54;1806322;78;21176;-59
2021/04/30 09:59:41;;;;;;;14.80;11.22;;;;;;;17.79;55.15;94042.59;1800082;78;21560;-61
2021/04/30 10:02:16;;;;;;;30.48;19.05;;;;;;;17.74;55.49;94051.72;1775954;78;21206;-61
2021/04/30 10:04:46;;;;;;;42.48;32.95;;;;;;;17.69;55.45;94046.16;1822218;78;21223;-58
2021/04/30 10:07:17;;;;;;;11.50;7.05;;;;;;;17.62;55.60;94043.27;1811562;78;21212;-58
2021/04/30 10:09:46;;;;;;;14.40;3.70;;;;;;;17.55;55.65;94046.58;1792881;78;21205;-57
2021/04/30 10:12:21;;;;;;;8.85;5.00;;;;;;;17.51;55.90;94045.31;1828046;78;21492;-56
2021/04/30 10:14:49;;;;;;;9.25;3.10;;;;;;;17.48;56.25;94047.08;1812626;77;22587;-56
2021/04/30 10:17:17;;;;;;;7.05;2.37;;;;;;;17.44;56.80;94056.97;1836066;77;21205;-57
2021/04/30 10:19:46;;;;;;;5.60;1.85;;;;;;;17.34;57.08;94057.86;1795640;79;21228;-55
2021/04/30 10:22:19;;;;;;;12.05;2.40;;;;;;;17.21;57.44;94049.86;1779267;78;21145;-61
2021/04/30 10:24:54;;;;;;;6.40;2.42;;;;;;;17.12;57.30;94050.13;1779993;79;21190;-60
2021/04/30 10:27:34;;;;;;;4.33;2.10;;;;;;;17.12;57.61;94039.75;1808894;79;21197;-57
2021/04/30 10:30:13;;;;;;;8.30;2.25;;;;;;;17.18;57.53;94043.92;1776417;79;21122;-60
2021/04/30 10:33:02;;;;;;;3.92;2.40;;;;;;;17.20;56.98;94040.77;1815396;78;21147;-59
2021/04/30 10:35:38;;;;;;;3.37;2.30;;;;;;;17.19;56.80;94055.94;1784397;78;21183;-60
2021/04/30 10:38:09;;;;;;;12.45;3.00;;;;;;;17.19;57.08;94044.05;1798660;78;21613;-57
2021/04/30 10:40:53;;;;;;;6.53;3.15;;;;;;;17.19;56.81;94044.82;1781065;78;21192;-60
2021/04/30 10:43:22;;;;;;;6.45;2.17;;;;;;;17.24;57.21;94048.22;1798575;78;22061;-62
2021/04/30 10:46:16;;;;;;;10.50;3.10;;;;;;;17.36;56.75;94045.59;1798597;79;21219;-60
2021/04/30 10:49:16;;;;;;;4.60;1.70;;;;;;;17.45;56.64;94041.14;1798947;78;21629;-62
2021/04/30 10:52:03;;;;;;;1.40;1.30;;;;;;;17.56;56.33;94047.32;1803522;78;21162;-59
2021/04/30 10:54:36;;;;;;;1.25;1.15;;;;;;;17.52;55.36;94050.38;1789411;78;21342;-59
2021/04/30 10:57:12;;;;;;;7.30;1.98;;;;;;;17.52;55.44;94051.77;1807694;78;21313;-59
2021/04/30 10:59:51;;;;;;;1.20;1.10;;;;;;;17.61;55.46;94045.92;1798254;78;21180;-58
2021/04/30 11:05:14;;;;;;;1.90;1.80;;;;;;;18.01;54.55;94041.13;1826605;78;21106;-60
2021/04/30 11:07:54;;;;;;;2.25;1.30;;;;;;;18.17;54.37;94043.73;1806879;78;21223;-59
2021/04/30 11:10:31;;;;;;;7.08;1.72;;;;;;;18.23;52.94;94036.23;1796293;79;21130;-58
2021/04/30 11:13:17;;;;;;;8.13;1.87;;;;;;;18.26;52.70;94047.73;1812572;79;21174;-56
2021/04/30 11:15:51;;;;;;;5.05;2.25;;;;;;;18.27;52.89;94042.30;1813172;79;21381;-61
2021/04/30 11:18:27;;;;;;;4.30;1.55;;;;;;;18.29;52.72;94036.23;1826280;78;21496;-58
2021/04/30 11:21:05;;;;;;;3.35;2.80;;;;;;;18.22;52.93;94045.86;1778854;78;21483;-60
2021/04/30 11:23:53;;;;;;;4.78;1.82;;;;;;;18.10;53.04;94037.30;1784094;79;21292;-55
2021/04/30 11:26:17;;;;;;;4.50;1.60;;;;;;;17.97;53.09;94038.50;1779481;80;21202;-63
2021/04/30 11:29:00;;;;;;;4.90;2.40;;;;;;;17.90;53.27;94052.31;1796344;79;21420;-56
2021/04/30 11:31:32;;;;;;;2.47;2.08;;;;;;;17.83;53.61;94052.08;1782273;79;21488;-58
2021/04/30 11:34:16;;;;;;;;;;;;;;;17.76;53.65;94038.67;1798983;78;21359;-58
2021/04/30 11:36:46;;;;;;;;;;;;;;;17.67;54.10;94048.70;1798483;78;20298;-59
2021/04/30 11:39:28;;;;;;;1.85;1.75;;;;;;;17.59;54.28;94051.24;1823799;78;20287;-60
2021/04/30 11:42:16;;;;;;;6.47;1.47;;;;;;;17.53;54.60;94046.34;1781371;79;21285;-60